createdAt,value
2017-08-06T00:00:58.367Z,1013.65
2017-08-06T00:02:07.610Z,1013.68
2017-08-06T00:03:16.844Z,1013.72
2017-08-06T00:04:26.073Z,1013.69
2017-08-06T00:05:34.982Z,1013.74
2017-08-06T00:06:43.881Z,1013.74
2017-08-06T00:07:52.786Z,1013.75
2017-08-06T00:09:01.693Z,1013.81
2017-08-06T00:10:10.596Z,1013.78
2017-08-06T00:11:19.502Z,1013.79
2017-08-06T00:12:28.411Z,1013.82
2017-08-06T00:13:37.319Z,1013.82
2017-08-06T00:14:46.224Z,1013.8
2017-08-06T00:15:55.134Z,1013.84
2017-08-06T00:17:04.055Z,1013.87
2017-08-06T00:18:12.962Z,1013.86
2017-08-06T00:19:21.860Z,1013.83
2017-08-06T00:20:30.765Z,1013.85
2017-08-06T00:21:39.988Z,1013.86
2017-08-06T00:22:48.911Z,1013.91
2017-08-06T00:23:57.813Z,1013.87
2017-08-06T00:25:07.365Z,1013.89
2017-08-06T00:26:16.266Z,1013.89
2017-08-06T00:27:25.171Z,1013.94
2017-08-06T00:28:34.072Z,1013.94
2017-08-06T00:29:42.980Z,1013.95
2017-08-06T00:30:51.880Z,1013.98
2017-08-06T00:32:01.108Z,1013.99
2017-08-06T00:33:10.332Z,1013.97
2017-08-06T00:34:19.228Z,1014
2017-08-06T00:35:28.130Z,1013.98
2017-08-06T00:36:37.043Z,1014.03
2017-08-06T00:37:45.948Z,1014.04
2017-08-06T00:38:54.846Z,1014.06
2017-08-06T00:40:03.755Z,1014.11
2017-08-06T00:41:12.659Z,1014.09
2017-08-06T00:42:21.563Z,1014.13
2017-08-06T00:43:30.793Z,1014.14
2017-08-06T00:44:39.696Z,1014.09
2017-08-06T00:45:48.599Z,1014.11
2017-08-06T00:46:57.829Z,1014.16
2017-08-06T00:48:07.050Z,1014.13
2017-08-06T00:49:15.956Z,1014.14
2017-08-06T00:50:24.866Z,1014.12
2017-08-06T00:51:33.771Z,1014.12
2017-08-06T00:52:42.996Z,1014.11
2017-08-06T00:53:51.903Z,1014.13
2017-08-06T00:55:00.809Z,1014.15
2017-08-06T00:56:09.718Z,1014.13
2017-08-06T00:57:18.632Z,1014.18
2017-08-06T00:58:27.539Z,1014.2
2017-08-06T00:59:36.441Z,1014.23
2017-08-06T01:00:45.349Z,1014.25
2017-08-06T01:01:54.247Z,1014.24
2017-08-06T01:03:03.158Z,1014.23
2017-08-06T01:04:12.062Z,1014.24
2017-08-06T01:05:20.975Z,1014.3
2017-08-06T01:06:29.874Z,1014.29
2017-08-06T01:07:38.775Z,1014.29
2017-08-06T01:08:47.993Z,1014.33
2017-08-06T01:09:56.899Z,1014.34
2017-08-06T01:11:05.816Z,1014.38
2017-08-06T01:12:14.722Z,1014.4
2017-08-06T01:13:23.623Z,1014.37
2017-08-06T01:14:32.523Z,1014.35
2017-08-06T01:15:41.428Z,1014.39
2017-08-06T01:16:50.323Z,1014.43
2017-08-06T01:17:59.232Z,1014.43
2017-08-06T01:19:08.131Z,1014.46
2017-08-06T01:20:17.353Z,1014.47
2017-08-06T01:21:26.250Z,1014.5
2017-08-06T01:22:35.156Z,1014.52
2017-08-06T01:23:44.053Z,1014.45
2017-08-06T01:24:53.281Z,1014.49
2017-08-06T01:26:02.191Z,1014.45
2017-08-06T01:27:11.422Z,1014.47
2017-08-06T01:28:20.328Z,1014.52
2017-08-06T01:29:29.232Z,1014.5
2017-08-06T01:30:38.133Z,1014.47
2017-08-06T01:31:47.033Z,1014.52
2017-08-06T01:32:56.266Z,1014.52
2017-08-06T01:34:05.175Z,1014.59
2017-08-06T01:35:14.407Z,1014.59
2017-08-06T01:36:23.310Z,1014.55
2017-08-06T01:37:32.539Z,1014.58
2017-08-06T01:38:41.441Z,1014.62
2017-08-06T01:39:50.346Z,1014.63
2017-08-06T01:40:59.245Z,1014.69
2017-08-06T01:42:08.146Z,1014.66
2017-08-06T01:43:17.062Z,1014.63
2017-08-06T01:44:25.964Z,1014.67
2017-08-06T01:45:34.872Z,1014.66
2017-08-06T01:46:43.773Z,1014.65
2017-08-06T01:47:52.674Z,1014.63
2017-08-06T01:49:01.577Z,1014.66
2017-08-06T01:50:10.476Z,1014.66
2017-08-06T01:51:19.382Z,1014.67
2017-08-06T01:52:28.287Z,1014.62
2017-08-06T01:53:37.835Z,1014.64
2017-08-06T01:54:46.734Z,1014.7
2017-08-06T01:55:55.649Z,1014.75
2017-08-06T01:57:04.547Z,1014.78
2017-08-06T01:58:13.468Z,1014.82
2017-08-06T01:59:22.371Z,1014.81
2017-08-06T02:00:31.275Z,1014.85
2017-08-06T02:01:40.180Z,1014.92
2017-08-06T02:02:49.084Z,1014.94
2017-08-06T02:03:57.986Z,1014.94
2017-08-06T02:05:06.898Z,1014.94
2017-08-06T02:06:15.808Z,1014.97
2017-08-06T02:07:24.711Z,1014.97
2017-08-06T02:08:33.630Z,1015.02
2017-08-06T02:09:42.850Z,1015.07
2017-08-06T02:10:51.755Z,1015.1
2017-08-06T02:12:00.649Z,1015.16
2017-08-06T02:13:09.557Z,1015.16
2017-08-06T02:14:18.461Z,1015.18
2017-08-06T02:15:27.372Z,1015.21
2017-08-06T02:16:36.276Z,1015.19
2017-08-06T02:17:45.178Z,1015.14
2017-08-06T02:18:54.077Z,1015.17
2017-08-06T02:20:02.980Z,1015.23
2017-08-06T02:21:11.885Z,1015.25
2017-08-06T02:22:20.794Z,1015.28
2017-08-06T02:23:30.026Z,1015.25
2017-08-06T02:24:38.934Z,1015.28
2017-08-06T02:25:47.837Z,1015.29
2017-08-06T02:26:56.739Z,1015.26
2017-08-06T02:28:05.648Z,1015.3
2017-08-06T02:29:14.540Z,1015.27
2017-08-06T02:30:23.450Z,1015.25
2017-08-06T02:31:32.348Z,1015.28
2017-08-06T02:32:41.259Z,1015.31
2017-08-06T02:33:50.484Z,1015.3
2017-08-06T02:34:59.715Z,1015.34
2017-08-06T02:36:08.947Z,1015.36
2017-08-06T02:37:17.856Z,1015.38
2017-08-06T02:38:26.757Z,1015.38
2017-08-06T02:39:35.670Z,1015.35
2017-08-06T02:40:44.578Z,1015.36
2017-08-06T02:41:53.478Z,1015.35
2017-08-06T02:43:02.384Z,1015.34
2017-08-06T02:44:11.292Z,1015.38
2017-08-06T02:45:20.191Z,1015.42
2017-08-06T02:46:29.102Z,1015.44
2017-08-06T02:47:38.005Z,1015.43
2017-08-06T02:48:46.917Z,1015.45
2017-08-06T02:49:56.144Z,1015.45
2017-08-06T02:51:05.052Z,1015.44
2017-08-06T02:52:14.294Z,1015.43
2017-08-06T02:53:23.212Z,1015.45
2017-08-06T02:54:32.114Z,1015.5
2017-08-06T02:55:41.024Z,1015.48
2017-08-06T02:56:49.931Z,1015.52
2017-08-06T02:57:58.835Z,1015.5
2017-08-06T02:59:07.735Z,1015.53
2017-08-06T03:00:16.956Z,1015.55
2017-08-06T03:01:25.868Z,1015.6
2017-08-06T03:02:35.097Z,1015.59
2017-08-06T03:03:43.997Z,1015.61
2017-08-06T03:04:53.214Z,1015.62
2017-08-06T03:06:02.120Z,1015.61
2017-08-06T03:07:11.020Z,1015.62
2017-08-06T03:08:20.255Z,1015.63
2017-08-06T03:09:29.486Z,1015.68
2017-08-06T03:10:38.389Z,1015.67
2017-08-06T03:11:47.285Z,1015.66
2017-08-06T03:12:56.191Z,1015.68
2017-08-06T03:14:05.095Z,1015.71
2017-08-06T03:15:14.324Z,1015.69
2017-08-06T03:16:23.552Z,1015.69
2017-08-06T03:17:32.468Z,1015.71
2017-08-06T03:18:41.367Z,1015.69
2017-08-06T03:19:50.278Z,1015.73
2017-08-06T03:20:59.186Z,1015.76
2017-08-06T03:22:08.093Z,1015.78
2017-08-06T03:23:17.002Z,1015.81
2017-08-06T03:24:25.896Z,1015.86
2017-08-06T03:25:34.800Z,1015.89
2017-08-06T03:26:43.702Z,1015.89
2017-08-06T03:27:52.618Z,1015.9
2017-08-06T03:29:01.525Z,1015.96
2017-08-06T03:30:10.432Z,1015.97
2017-08-06T03:31:19.344Z,1016
2017-08-06T03:32:28.250Z,1015.96
2017-08-06T03:33:37.162Z,1016
2017-08-06T03:34:46.066Z,1016.04
2017-08-06T03:35:54.975Z,1016.05
2017-08-06T03:37:04.207Z,1016.06
2017-08-06T03:38:13.111Z,1016.04
2017-08-06T03:39:22.014Z,1016.04
2017-08-06T03:40:30.923Z,1016.03
2017-08-06T03:41:39.825Z,1016.08
2017-08-06T03:42:48.728Z,1016.11
2017-08-06T03:43:57.641Z,1016.11
2017-08-06T03:45:06.872Z,1016.1
2017-08-06T03:46:15.785Z,1016.11
2017-08-06T03:47:24.682Z,1016.17
2017-08-06T03:48:33.587Z,1016.18
2017-08-06T03:49:42.483Z,1016.19
2017-08-06T03:50:51.400Z,1016.24
2017-08-06T03:52:00.309Z,1016.24
2017-08-06T03:53:09.223Z,1016.3
2017-08-06T03:54:18.126Z,1016.32
2017-08-06T03:55:27.029Z,1016.33
2017-08-06T03:56:35.947Z,1016.31
2017-08-06T03:57:44.848Z,1016.3
2017-08-06T03:58:53.769Z,1016.29
2017-08-06T04:00:02.672Z,1016.34
2017-08-06T04:01:11.898Z,1016.36
2017-08-06T04:02:20.798Z,1016.37
2017-08-06T04:03:31.127Z,1016.41
2017-08-06T04:04:41.478Z,1016.37
2017-08-06T04:05:50.394Z,1016.41
2017-08-06T04:06:59.301Z,1016.41
2017-08-06T04:08:08.208Z,1016.44
2017-08-06T04:09:17.426Z,1016.46
2017-08-06T04:10:26.333Z,1016.46
2017-08-06T04:11:35.235Z,1016.43
2017-08-06T04:12:44.156Z,1016.44
2017-08-06T04:13:53.070Z,1016.49
2017-08-06T04:15:02.294Z,1016.51
2017-08-06T04:16:11.840Z,1016.49
2017-08-06T04:17:20.746Z,1016.5
2017-08-06T04:18:29.654Z,1016.56
2017-08-06T04:19:38.560Z,1016.58
2017-08-06T04:20:47.470Z,1016.58
2017-08-06T04:21:56.374Z,1016.61
2017-08-06T04:23:05.280Z,1016.58
2017-08-06T04:24:14.504Z,1016.6
2017-08-06T04:25:23.413Z,1016.59
2017-08-06T04:26:32.313Z,1016.57
2017-08-06T04:27:41.218Z,1016.59
2017-08-06T04:28:50.115Z,1016.58
2017-08-06T04:29:59.016Z,1016.57
2017-08-06T04:31:07.921Z,1016.6
2017-08-06T04:32:17.151Z,1016.6
2017-08-06T04:33:26.061Z,1016.61
2017-08-06T04:34:34.968Z,1016.6
2017-08-06T04:35:43.871Z,1016.65
2017-08-06T04:36:52.763Z,1016.65
2017-08-06T04:38:01.671Z,1016.68
2017-08-06T04:39:10.592Z,1016.69
2017-08-06T04:40:19.490Z,1016.65
2017-08-06T04:41:28.410Z,1016.65
2017-08-06T04:42:37.308Z,1016.65
2017-08-06T04:43:46.544Z,1016.64
2017-08-06T04:44:55.455Z,1016.63
2017-08-06T04:46:04.734Z,1016.64
2017-08-06T04:47:13.634Z,1016.64
2017-08-06T04:48:22.539Z,1016.69
2017-08-06T04:49:31.758Z,1016.7
2017-08-06T04:50:40.658Z,1016.71
2017-08-06T04:51:49.573Z,1016.7
2017-08-06T04:52:58.476Z,1016.75
2017-08-06T04:54:07.378Z,1016.78
2017-08-06T04:55:16.279Z,1016.79
2017-08-06T04:56:25.185Z,1016.77
2017-08-06T04:57:34.085Z,1016.78
2017-08-06T04:58:42.988Z,1016.82
2017-08-06T04:59:52.209Z,1016.81
2017-08-06T05:01:01.436Z,1016.8
2017-08-06T05:02:10.366Z,1016.81
2017-08-06T05:03:19.278Z,1016.85
2017-08-06T05:04:28.195Z,1016.87
2017-08-06T05:05:37.098Z,1016.87
2017-08-06T05:06:46.000Z,1016.83
2017-08-06T05:07:54.906Z,1016.87
2017-08-06T05:09:03.813Z,1016.88
2017-08-06T05:10:12.746Z,1016.91
2017-08-06T05:11:21.648Z,1016.87
2017-08-06T05:12:30.551Z,1016.89
2017-08-06T05:13:39.467Z,1016.93
2017-08-06T05:14:48.368Z,1016.88
2017-08-06T05:15:57.276Z,1016.89
2017-08-06T05:17:06.503Z,1016.86
2017-08-06T05:18:15.408Z,1016.9
2017-08-06T05:19:24.315Z,1016.9
2017-08-06T05:20:33.221Z,1016.9
2017-08-06T05:21:42.123Z,1016.96
2017-08-06T05:22:51.026Z,1016.96
2017-08-06T05:24:00.265Z,1016.95
2017-08-06T05:25:09.164Z,1016.98
2017-08-06T05:26:18.108Z,1016.96
2017-08-06T05:27:27.015Z,1017
2017-08-06T05:28:36.248Z,1016.99
2017-08-06T05:29:45.471Z,1016.97
2017-08-06T05:30:54.701Z,1016.97
2017-08-06T05:32:03.601Z,1017.01
2017-08-06T05:33:12.510Z,1017.02
2017-08-06T05:34:22.052Z,1017.03
2017-08-06T05:35:30.957Z,1017.08
2017-08-06T05:36:39.858Z,1017.06
2017-08-06T05:37:48.770Z,1017.12
2017-08-06T05:38:57.671Z,1017.14
2017-08-06T05:40:06.585Z,1017.13
2017-08-06T05:41:15.482Z,1017.13
2017-08-06T05:42:24.389Z,1017.17
2017-08-06T05:43:33.295Z,1017.15
2017-08-06T05:44:42.208Z,1017.22
2017-08-06T05:45:51.109Z,1017.23
2017-08-06T05:47:00.010Z,1017.24
2017-08-06T05:48:08.910Z,1017.24
2017-08-06T05:49:17.818Z,1017.25
2017-08-06T05:50:26.742Z,1017.26
2017-08-06T05:51:35.654Z,1017.22
2017-08-06T05:52:44.565Z,1017.27
2017-08-06T05:53:53.466Z,1017.27
2017-08-06T05:55:02.695Z,1017.28
2017-08-06T05:56:11.603Z,1017.29
2017-08-06T05:57:20.510Z,1017.26
2017-08-06T05:58:29.408Z,1017.29
2017-08-06T05:59:38.326Z,1017.29
2017-08-06T06:00:47.237Z,1017.32
2017-08-06T06:01:56.146Z,1017.33
2017-08-06T06:03:05.054Z,1017.28
2017-08-06T06:04:13.960Z,1017.4
2017-08-06T06:05:22.882Z,1017.41
2017-08-06T06:06:31.782Z,1017.4
2017-08-06T06:07:40.702Z,1017.43
2017-08-06T06:08:49.602Z,1017.42
2017-08-06T06:09:58.507Z,1017.44
2017-08-06T06:11:07.407Z,1017.44
2017-08-06T06:12:16.315Z,1017.41
2017-08-06T06:13:25.206Z,1017.44
2017-08-06T06:14:34.773Z,1017.53
2017-08-06T06:15:44.003Z,1017.47
2017-08-06T06:16:52.910Z,1017.51
2017-08-06T06:18:01.818Z,1017.61
2017-08-06T06:19:11.046Z,1017.58
2017-08-06T06:20:19.952Z,1017.66
2017-08-06T06:21:29.181Z,1017.67
2017-08-06T06:22:38.092Z,1017.65
2017-08-06T06:23:46.996Z,1017.69
2017-08-06T06:24:55.902Z,1017.69
2017-08-06T06:26:05.450Z,1017.71
2017-08-06T06:27:14.368Z,1017.76
2017-08-06T06:28:23.279Z,1017.81
2017-08-06T06:29:32.516Z,1017.8
2017-08-06T06:30:41.741Z,1017.81
2017-08-06T06:31:50.656Z,1017.85
2017-08-06T06:32:59.564Z,1017.85
2017-08-06T06:34:08.478Z,1017.81
2017-08-06T06:35:17.383Z,1017.81
2017-08-06T06:36:26.282Z,1017.81
2017-08-06T06:37:35.191Z,1017.85
2017-08-06T06:38:44.425Z,1017.88
2017-08-06T06:39:53.332Z,1017.86
2017-08-06T06:41:02.236Z,1017.84
2017-08-06T06:42:11.153Z,1017.89
2017-08-06T06:43:20.388Z,1017.87
2017-08-06T06:44:29.295Z,1017.88
2017-08-06T06:45:38.203Z,1017.85
2017-08-06T06:46:47.107Z,1017.88
2017-08-06T06:47:56.349Z,1017.88
2017-08-06T06:49:05.256Z,1017.91
2017-08-06T06:50:14.181Z,1017.91
2017-08-06T06:51:23.080Z,1017.91
2017-08-06T06:52:32.313Z,1017.95
2017-08-06T06:53:41.225Z,1017.99
2017-08-06T06:54:50.130Z,1017.99
2017-08-06T06:55:59.045Z,1017.99
2017-08-06T06:57:07.956Z,1017.97
2017-08-06T06:58:16.861Z,1018.04
2017-08-06T06:59:26.088Z,1018.01
2017-08-06T07:00:34.994Z,1018.04
2017-08-06T07:01:43.903Z,1018.08
2017-08-06T07:02:52.817Z,1018.13
2017-08-06T07:04:01.727Z,1018.15
2017-08-06T07:05:10.634Z,1018.08
2017-08-06T07:06:19.545Z,1018.12
2017-08-06T07:07:28.456Z,1018.14
2017-08-06T07:08:37.363Z,1018.15
2017-08-06T07:09:46.272Z,1018.16
2017-08-06T07:10:55.174Z,1018.18
2017-08-06T07:12:04.079Z,1018.18
2017-08-06T07:13:12.989Z,1018.18
2017-08-06T07:14:21.902Z,1018.17
2017-08-06T07:15:30.808Z,1018.15
2017-08-06T07:16:39.721Z,1018.18
2017-08-06T07:17:48.639Z,1018.2
2017-08-06T07:18:57.865Z,1018.17
2017-08-06T07:20:06.766Z,1018.17
2017-08-06T07:21:15.668Z,1018.21
2017-08-06T07:22:24.583Z,1018.17
2017-08-06T07:23:33.480Z,1018.29
2017-08-06T07:24:42.393Z,1018.22
2017-08-06T07:25:51.289Z,1018.24
2017-08-06T07:27:00.198Z,1018.27
2017-08-06T07:28:09.097Z,1018.26
2017-08-06T07:29:18.006Z,1018.26
2017-08-06T07:30:26.928Z,1018.24
2017-08-06T07:31:35.834Z,1018.3
2017-08-06T07:32:44.736Z,1018.3
2017-08-06T07:33:53.642Z,1018.32
2017-08-06T07:35:02.872Z,1018.33
2017-08-06T07:36:11.777Z,1018.35
2017-08-06T07:37:20.689Z,1018.33
2017-08-06T07:38:29.590Z,1018.36
2017-08-06T07:39:38.489Z,1018.35
2017-08-06T07:40:47.400Z,1018.38
2017-08-06T07:41:56.300Z,1018.42
2017-08-06T07:43:05.210Z,1018.43
2017-08-06T07:44:14.113Z,1018.47
2017-08-06T07:45:23.019Z,1018.4
2017-08-06T07:46:31.926Z,1018.43
2017-08-06T07:47:40.843Z,1018.47
2017-08-06T07:48:49.743Z,1018.49
2017-08-06T07:49:58.662Z,1018.47
2017-08-06T07:51:07.572Z,1018.46
2017-08-06T07:52:16.480Z,1018.45
2017-08-06T07:53:25.383Z,1018.51
2017-08-06T07:54:34.297Z,1018.48
2017-08-06T07:55:43.209Z,1018.54
2017-08-06T07:56:52.106Z,1018.55
2017-08-06T07:58:01.016Z,1018.56
2017-08-06T07:59:09.918Z,1018.55
2017-08-06T08:00:18.823Z,1018.53
2017-08-06T08:01:27.723Z,1018.51
2017-08-06T08:02:36.628Z,1018.59
2017-08-06T08:03:45.535Z,1018.59
2017-08-06T08:04:54.444Z,1018.59
2017-08-06T08:06:03.350Z,1018.57
2017-08-06T08:07:12.257Z,1018.61
2017-08-06T08:08:21.157Z,1018.63
2017-08-06T08:09:30.058Z,1018.68
2017-08-06T08:10:38.971Z,1018.64
2017-08-06T08:11:47.880Z,1018.71
2017-08-06T08:12:56.783Z,1018.72
2017-08-06T08:14:05.680Z,1018.69
2017-08-06T08:15:14.581Z,1018.67
2017-08-06T08:16:23.480Z,1018.69
2017-08-06T08:17:32.385Z,1018.69
2017-08-06T08:18:41.292Z,1018.65
2017-08-06T08:19:50.198Z,1018.69
2017-08-06T08:20:59.098Z,1018.72
2017-08-06T08:22:08.012Z,1018.75
2017-08-06T08:23:16.920Z,1018.75
2017-08-06T08:24:25.828Z,1018.74
2017-08-06T08:25:34.731Z,1018.76
2017-08-06T08:26:43.641Z,1018.66
2017-08-06T08:27:52.549Z,1018.83
2017-08-06T08:29:01.455Z,1018.78
2017-08-06T08:30:10.359Z,1018.82
2017-08-06T08:31:19.267Z,1018.84
2017-08-06T08:32:28.178Z,1018.83
2017-08-06T08:33:37.084Z,1018.78
2017-08-06T08:34:45.984Z,1018.87
2017-08-06T08:35:54.890Z,1018.87
2017-08-06T08:37:04.112Z,1018.91
2017-08-06T08:38:13.020Z,1018.87
2017-08-06T08:39:21.921Z,1018.9
2017-08-06T08:40:30.839Z,1018.93
2017-08-06T08:41:39.743Z,1018.95
2017-08-06T08:42:48.971Z,1018.91
2017-08-06T08:43:57.873Z,1018.99
2017-08-06T08:45:07.111Z,1019
2017-08-06T08:46:16.013Z,1018.98
2017-08-06T08:47:24.917Z,1018.99
2017-08-06T08:48:33.827Z,1019.03
2017-08-06T08:49:43.063Z,1018.99
2017-08-06T08:50:51.970Z,1019.09
2017-08-06T08:52:00.872Z,1019.03
2017-08-06T08:53:09.781Z,1019.08
2017-08-06T08:54:18.684Z,1019.04
2017-08-06T08:55:27.594Z,1019.1
2017-08-06T08:56:36.503Z,1019.12
2017-08-06T08:57:45.409Z,1019.14
2017-08-06T08:58:54.312Z,1019.16
2017-08-06T09:00:03.546Z,1019.17
2017-08-06T09:01:12.453Z,1019.16
2017-08-06T09:02:21.357Z,1019.18
2017-08-06T09:03:30.253Z,1019.2
2017-08-06T09:04:39.804Z,1019.19
2017-08-06T09:05:48.713Z,1019.21
2017-08-06T09:06:57.619Z,1019.21
2017-08-06T09:08:06.525Z,1019.25
2017-08-06T09:09:15.426Z,1019.21
2017-08-06T09:10:24.324Z,1019.27
2017-08-06T09:11:33.237Z,1019.26
2017-08-06T09:12:42.791Z,1019.23
2017-08-06T09:13:51.693Z,1019.27
2017-08-06T09:15:00.598Z,1019.18
2017-08-06T09:16:09.501Z,1019.2
2017-08-06T09:17:18.731Z,1019.24
2017-08-06T09:18:27.641Z,1019.29
2017-08-06T09:19:36.555Z,1019.28
2017-08-06T09:20:45.459Z,1019.31
2017-08-06T09:21:54.698Z,1019.26
2017-08-06T09:23:03.601Z,1019.28
2017-08-06T09:24:12.500Z,1019.29
2017-08-06T09:25:21.405Z,1019.3
2017-08-06T09:26:30.307Z,1019.28
2017-08-06T09:27:39.221Z,1019.33
2017-08-06T09:28:48.133Z,1019.34
2017-08-06T09:29:57.034Z,1019.31
2017-08-06T09:31:05.933Z,1019.37
2017-08-06T09:32:14.840Z,1019.35
2017-08-06T09:33:23.748Z,1019.32
2017-08-06T09:34:32.660Z,1019.35
2017-08-06T09:35:41.567Z,1019.36
2017-08-06T09:36:50.468Z,1019.31
2017-08-06T09:37:59.377Z,1019.32
2017-08-06T09:39:08.275Z,1019.35
2017-08-06T09:40:17.180Z,1019.38
2017-08-06T09:41:26.085Z,1019.31
2017-08-06T09:42:34.992Z,1019.33
2017-08-06T09:43:43.895Z,1019.38
2017-08-06T09:44:52.800Z,1019.41
2017-08-06T09:46:01.728Z,1019.37
2017-08-06T09:47:10.633Z,1019.35
2017-08-06T09:48:19.870Z,1019.36
2017-08-06T09:49:28.776Z,1019.36
2017-08-06T09:50:37.685Z,1019.35
2017-08-06T09:51:46.588Z,1019.34
2017-08-06T09:52:55.499Z,1019.34
2017-08-06T09:54:04.727Z,1019.33
2017-08-06T09:55:13.953Z,1019.32
2017-08-06T09:56:22.862Z,1019.36
2017-08-06T09:57:31.765Z,1019.31
2017-08-06T09:58:40.668Z,1019.28
2017-08-06T09:59:49.579Z,1019.32
2017-08-06T10:00:58.478Z,1019.38
2017-08-06T10:02:07.392Z,1019.33
2017-08-06T10:03:16.309Z,1019.35
2017-08-06T10:04:25.203Z,1019.35
2017-08-06T10:05:34.106Z,1019.34
2017-08-06T10:06:43.014Z,1019.36
2017-08-06T10:07:51.919Z,1019.34
2017-08-06T10:09:00.820Z,1019.36
2017-08-06T10:10:09.733Z,1019.32
2017-08-06T10:11:18.642Z,1019.33
2017-08-06T10:12:27.548Z,1019.33
2017-08-06T10:13:36.448Z,1019.29
2017-08-06T10:14:45.356Z,1019.34
2017-08-06T10:15:54.258Z,1019.33
2017-08-06T10:17:03.161Z,1019.38
2017-08-06T10:18:12.068Z,1019.38
2017-08-06T10:19:20.987Z,1019.37
2017-08-06T10:20:29.888Z,1019.31
2017-08-06T10:21:38.786Z,1019.42
2017-08-06T10:22:47.697Z,1019.33
2017-08-06T10:23:56.605Z,1019.33
2017-08-06T10:25:05.835Z,1019.32
2017-08-06T10:26:14.735Z,1019.37
2017-08-06T10:27:23.644Z,1019.26
2017-08-06T10:28:32.548Z,1019.33
2017-08-06T10:29:41.464Z,1019.31
2017-08-06T10:30:50.691Z,1019.34
2017-08-06T10:31:59.601Z,1019.31
2017-08-06T10:33:08.504Z,1019.32
2017-08-06T10:34:17.402Z,1019.3
2017-08-06T10:35:26.306Z,1019.31
2017-08-06T10:36:35.531Z,1019.37
2017-08-06T10:37:44.439Z,1019.34
2017-08-06T10:38:53.348Z,1019.3
2017-08-06T10:40:02.258Z,1019.31
2017-08-06T10:41:11.172Z,1019.29
2017-08-06T10:42:20.396Z,1019.27
2017-08-06T10:43:29.303Z,1019.35
2017-08-06T10:44:38.206Z,1019.34
2017-08-06T10:45:47.111Z,1019.39
2017-08-06T10:46:56.006Z,1019.41
2017-08-06T10:48:04.916Z,1019.36
2017-08-06T10:49:13.833Z,1019.36
2017-08-06T10:50:22.742Z,1019.32
2017-08-06T10:51:31.666Z,1019.31
2017-08-06T10:52:40.581Z,1019.27
2017-08-06T10:53:49.481Z,1019.27
2017-08-06T10:54:58.381Z,1019.32
2017-08-06T10:56:07.292Z,1019.36
2017-08-06T10:57:16.199Z,1019.41
2017-08-06T10:58:25.110Z,1019.36
2017-08-06T10:59:34.012Z,1019.4
2017-08-06T11:00:42.916Z,1019.3
2017-08-06T11:01:51.826Z,1019.35
2017-08-06T11:03:00.751Z,1019.28
2017-08-06T11:04:09.649Z,1019.33
2017-08-06T11:05:18.574Z,1019.29
2017-08-06T11:06:27.472Z,1019.29
2017-08-06T11:07:36.381Z,1019.3
2017-08-06T11:08:45.284Z,1019.34
2017-08-06T11:09:54.200Z,1019.3
2017-08-06T11:11:03.437Z,1019.26
2017-08-06T11:12:12.347Z,1019.23
2017-08-06T11:13:21.257Z,1019.27
2017-08-06T11:14:30.170Z,1019.3
2017-08-06T11:15:39.070Z,1019.26
2017-08-06T11:16:47.977Z,1019.28
2017-08-06T11:17:56.882Z,1019.32
2017-08-06T11:19:05.784Z,1019.31
2017-08-06T11:20:14.695Z,1019.3
2017-08-06T11:21:23.920Z,1019.27
2017-08-06T11:22:32.858Z,1019.29
2017-08-06T11:23:41.759Z,1019.28
2017-08-06T11:24:50.671Z,1019.29
2017-08-06T11:25:59.571Z,1019.31
2017-08-06T11:27:08.474Z,1019.27
2017-08-06T11:28:17.383Z,1019.28
2017-08-06T11:29:26.286Z,1019.26
2017-08-06T11:30:35.192Z,1019.26
2017-08-06T11:31:44.424Z,1019.3
2017-08-06T11:32:53.328Z,1019.28
2017-08-06T11:34:02.552Z,1019.25
2017-08-06T11:35:11.461Z,1019.28
2017-08-06T11:36:20.399Z,1019.31
2017-08-06T11:37:29.299Z,1019.28
2017-08-06T11:38:38.207Z,1019.32
2017-08-06T11:39:47.110Z,1019.29
2017-08-06T11:40:56.040Z,1019.27
2017-08-06T11:42:04.941Z,1019.3
2017-08-06T11:43:13.848Z,1019.31
2017-08-06T11:44:22.752Z,1019.26
2017-08-06T11:45:31.661Z,1019.26
2017-08-06T11:46:40.562Z,1019.29
2017-08-06T11:47:49.471Z,1019.27
2017-08-06T11:48:58.374Z,1019.25
2017-08-06T11:50:07.274Z,1019.23
2017-08-06T11:51:16.186Z,1019.28
2017-08-06T11:52:25.108Z,1019.24
2017-08-06T11:53:34.341Z,1019.23
2017-08-06T11:54:43.243Z,1019.16
2017-08-06T11:55:52.153Z,1019.16
2017-08-06T11:57:01.056Z,1019.27
2017-08-06T11:58:09.966Z,1019.22
2017-08-06T11:59:18.875Z,1019.23
2017-08-06T12:00:27.777Z,1019.24
2017-08-06T12:01:36.676Z,1019.16
2017-08-06T12:02:45.583Z,1019.15
2017-08-06T12:03:54.482Z,1019.12
2017-08-06T12:05:03.388Z,1019.15
2017-08-06T12:06:12.290Z,1019.17
2017-08-06T12:07:21.197Z,1019.16
2017-08-06T12:08:30.116Z,1019.14
2017-08-06T12:09:39.347Z,1019.16
2017-08-06T12:10:48.248Z,1019.16
2017-08-06T12:11:57.150Z,1019.06
2017-08-06T12:13:06.064Z,1019.11
2017-08-06T12:14:14.985Z,1019.04
2017-08-06T12:15:23.892Z,1019.08
2017-08-06T12:16:32.795Z,1019.1
2017-08-06T12:17:41.725Z,1019.13
2017-08-06T12:18:50.647Z,1019.16
2017-08-06T12:19:59.556Z,1019.17
2017-08-06T12:21:08.462Z,1019.16
2017-08-06T12:22:17.377Z,1019.18
2017-08-06T12:23:26.269Z,1019.23
2017-08-06T12:24:35.186Z,1019.24
2017-08-06T12:25:44.086Z,1019.2
2017-08-06T12:26:52.992Z,1019.25
2017-08-06T12:28:01.899Z,1019.24
2017-08-06T12:29:10.804Z,1019.27
2017-08-06T12:30:19.716Z,1019.22
2017-08-06T12:31:28.622Z,1019.18
2017-08-06T12:32:37.523Z,1019.21
2017-08-06T12:33:46.430Z,1019.16
2017-08-06T12:34:55.334Z,1019.22
2017-08-06T12:36:04.562Z,1019.23
2017-08-06T12:37:13.468Z,1019.23
2017-08-06T12:38:22.704Z,1019.24
2017-08-06T12:39:31.615Z,1019.26
2017-08-06T12:40:40.525Z,1019.21
2017-08-06T12:41:49.427Z,1019.24
2017-08-06T12:42:58.332Z,1019.17
2017-08-06T12:44:07.229Z,1019.17
2017-08-06T12:45:16.474Z,1019.18
2017-08-06T12:46:25.384Z,1019.15
2017-08-06T12:47:34.296Z,1019.27
2017-08-06T12:48:43.201Z,1019.2
2017-08-06T12:49:52.129Z,1019.21
2017-08-06T12:51:01.036Z,1019.29
2017-08-06T12:52:09.940Z,1019.27
2017-08-06T12:53:19.186Z,1019.26
2017-08-06T12:54:28.087Z,1019.22
2017-08-06T12:55:36.999Z,1019.21
2017-08-06T12:56:45.906Z,1019.26
2017-08-06T12:57:54.816Z,1019.26
2017-08-06T12:59:03.723Z,1019.24
2017-08-06T13:00:12.635Z,1019.22
2017-08-06T13:01:21.532Z,1019.19
2017-08-06T13:02:30.441Z,1019.14
2017-08-06T13:03:39.347Z,1019.13
2017-08-06T13:04:48.576Z,1019.19
2017-08-06T13:05:57.478Z,1019.19
2017-08-06T13:07:06.389Z,1019.22
2017-08-06T13:08:15.296Z,1019.25
2017-08-06T13:09:24.209Z,1019.25
2017-08-06T13:10:33.114Z,1019.25
2017-08-06T13:11:42.018Z,1019.28
2017-08-06T13:12:50.927Z,1019.25
2017-08-06T13:13:59.832Z,1019.29
2017-08-06T13:15:08.738Z,1019.29
2017-08-06T13:16:17.641Z,1019.3
2017-08-06T13:17:26.553Z,1019.34
2017-08-06T13:18:35.452Z,1019.3
2017-08-06T13:19:44.367Z,1019.32
2017-08-06T13:20:53.268Z,1019.33
2017-08-06T13:22:02.179Z,1019.41
2017-08-06T13:23:11.089Z,1019.42
2017-08-06T13:24:19.995Z,1019.44
2017-08-06T13:25:28.900Z,1019.46
2017-08-06T13:26:37.807Z,1019.44
2017-08-06T13:27:46.711Z,1019.48
2017-08-06T13:28:55.614Z,1019.5
2017-08-06T13:30:04.848Z,1019.52
2017-08-06T13:31:13.746Z,1019.5
2017-08-06T13:32:22.653Z,1019.47
2017-08-06T13:33:31.557Z,1019.47
2017-08-06T13:34:40.465Z,1019.5
2017-08-06T13:35:49.694Z,1019.47
2017-08-06T13:36:58.597Z,1019.51
2017-08-06T13:38:07.506Z,1019.52
2017-08-06T13:39:16.413Z,1019.46
2017-08-06T13:40:25.320Z,1019.51
2017-08-06T13:41:34.232Z,1019.55
2017-08-06T13:42:43.130Z,1019.56
2017-08-06T13:43:52.034Z,1019.58
2017-08-06T13:45:00.944Z,1019.62
2017-08-06T13:46:09.851Z,1019.59
2017-08-06T13:47:18.757Z,1019.6
2017-08-06T13:48:27.662Z,1019.55
2017-08-06T13:49:36.568Z,1019.52
2017-08-06T13:50:45.791Z,1019.55
2017-08-06T13:51:54.709Z,1019.56
2017-08-06T13:53:03.605Z,1019.55
2017-08-06T13:54:12.516Z,1019.54
2017-08-06T13:55:21.424Z,1019.58
2017-08-06T13:56:30.331Z,1019.56
2017-08-06T13:57:39.235Z,1019.53